sensor_id;sensor_type;location;lat;lon;timestamp;pressure;altitude;pressure_sealevel;temperature;humidity
13033;BME280;6583;42.632;23.298;2022-12-07T00:01:06;92394.28;;;5.55;100.00
13033;BME280;6583;42.632;23.298;2022-12-07T00:03:34;92393.75;;;5.58;100.00
13033;BME280;6583;42.632;23.298;2022-12-07T00:06:01;92402.72;;;5.62;100.00
13033;BME280;6583;42.632;23.298;2022-12-07T00:08:28;92408.25;;;5.65;100.00
13033;BME280;6583;42.632;23.298;2022-12-07T00:10:55;92399.56;;;5.60;100.00
13033;BME280;6583;42.632;23.298;2022-12-07T00:13:21;92394.81;;;5.57;100.00
13033;BME280;6583;42.632;23.298;2022-12-07T00:15:49;92394.28;;;5.60;100.00
13033;BME280;6583;42.632;23.298;2022-12-07T00:18:16;92384.81;;;5.59;100.00
13033;BME280;6583;42.632;23.298;2022-12-07T00:20:43;92379.81;;;5.57;100.00
13033;BME280;6583;42.632;23.298;2022-12-07T00:23:10;92382.97;;;5.59;100.00
13033;BME280;6583;42.632;23.298;2022-12-07T00:25:36;92384.28;;;5.62;100.00
13033;BME280;6583;42.632;23.298;2022-12-07T00:28:03;92384.03;;;5.63;100.00
13033;BME280;6583;42.632;23.298;2022-12-07T00:30:30;92383.50;;;5.67;100.00
13033;BME280;6583;42.632;23.298;2022-12-07T00:32:58;92395.34;;;5.69;100.00
13033;BME280;6583;42.632;23.298;2022-12-07T00:35:25;92399.03;;;5.68;100.00
13033;BME280;6583;42.632;23.298;2022-12-07T00:37:51;92397.47;;;5.72;100.00
13033;BME280;6583;42.632;23.298;2022-12-07T00:40:18;92390.09;;;5.74;100.00
13033;BME280;6583;42.632;23.298;2022-12-07T00:42:44;92388.00;;;5.76;100.00
13033;BME280;6583;42.632;23.298;2022-12-07T00:45:11;92375.38;;;5.78;100.00
13033;BME280;6583;42.632;23.298;2022-12-07T00:47:38;92370.88;;;5.79;100.00
13033;BME280;6583;42.632;23.298;2022-12-07T00:50:07;92376.91;;;5.79;100.00
13033;BME280;6583;42.632;23.298;2022-12-07T00:52:33;92382.19;;;5.74;100.00
13033;BME280;6583;42.632;23.298;2022-12-07T00:55:00;92388.25;;;5.75;100.00
13033;BME280;6583;42.632;23.298;2022-12-07T00:57:27;92387.75;;;5.73;100.00
13033;BME280;6583;42.632;23.298;2022-12-07T00:59:53;92387.44;;;5.69;100.00
13033;BME280;6583;42.632;23.298;2022-12-07T01:02:23;92388.00;;;5.66;100.00
13033;BME280;6583;42.632;23.298;2022-12-07T01:04:49;92382.19;;;5.64;100.00
13033;BME280;6583;42.632;23.298;2022-12-07T01:07:17;92380.34;;;5.59;100.00
13033;BME280;6583;42.632;23.298;2022-12-07T01:09:44;92388.50;;;5.58;100.00
13033;BME280;6583;42.632;23.298;2022-12-07T01:12:11;92378.75;;;5.58;100.00
13033;BME280;6583;42.632;23.298;2022-12-07T01:14:37;92378.50;;;5.60;100.00
13033;BME280;6583;42.632;23.298;2022-12-07T01:17:04;92376.94;;;5.59;100.00
13033;BME280;6583;42.632;23.298;2022-12-07T01:19:31;92371.13;;;5.62;100.00
13033;BME280;6583;42.632;23.298;2022-12-07T01:21:57;92364.81;;;5.63;100.00
13033;BME280;6583;42.632;23.298;2022-12-07T01:24:25;92360.59;;;5.67;100.00
13033;BME280;6583;42.632;23.298;2022-12-07T01:26:52;92361.41;;;5.62;100.00
13033;BME280;6583;42.632;23.298;2022-12-07T01:29:18;92362.19;;;5.63;100.00
13033;BME280;6583;42.632;23.298;2022-12-07T01:31:48;92359.03;;;5.61;100.00
13033;BME280;6583;42.632;23.298;2022-12-07T01:34:15;92368.22;;;5.63;100.00
13033;BME280;6583;42.632;23.298;2022-12-07T01:36:42;92355.31;;;5.62;100.00
13033;BME280;6583;42.632;23.298;2022-12-07T01:39:09;92362.44;;;5.61;100.00
13033;BME280;6583;42.632;23.298;2022-12-07T01:41:39;92358.47;;;5.64;100.00
13033;BME280;6583;42.632;23.298;2022-12-07T01:44:20;92360.84;;;5.65;100.00
13033;BME280;6583;42.632;23.298;2022-12-07T01:46:48;92362.44;;;5.67;100.00
13033;BME280;6583;42.632;23.298;2022-12-07T01:49:31;92360.84;;;5.71;100.00
13033;BME280;6583;42.632;23.298;2022-12-07T01:52:14;92364.81;;;5.78;100.00
13033;BME280;6583;42.632;23.298;2022-12-07T01:54:44;92359.81;;;5.72;100.00
13033;BME280;6583;42.632;23.298;2022-12-07T01:57:14;92354.81;;;5.75;100.00
13033;BME280;6583;42.632;23.298;2022-12-07T01:59:43;92356.66;;;5.75;100.00
13033;BME280;6583;42.632;23.298;2022-12-07T02:02:15;92345.06;;;5.71;100.00
13033;BME280;6583;42.632;23.298;2022-12-07T02:04:45;92335.34;;;5.71;100.00
13033;BME280;6583;42.632;23.298;2022-12-07T02:07:12;92329.53;;;5.74;100.00
13033;BME280;6583;42.632;23.298;2022-12-07T02:09:39;92326.38;;;5.77;100.00
13033;BME280;6583;42.632;23.298;2022-12-07T02:12:06;92333.22;;;5.78;100.00
13033;BME280;6583;42.632;23.298;2022-12-07T02:14:34;92341.13;;;5.78;100.00
13033;BME280;6583;42.632;23.298;2022-12-07T02:17:09;92354.81;;;5.55;100.00
13033;BME280;6583;42.632;23.298;2022-12-07T02:20:03;92360.56;;;5.46;100.00
13033;BME280;6583;42.632;23.298;2022-12-07T02:22:48;92353.75;;;5.40;100.00
13033;BME280;6583;42.632;23.298;2022-12-07T02:25:26;92348.47;;;5.40;100.00
13033;BME280;6583;42.632;23.298;2022-12-07T02:28:01;92345.31;;;5.38;100.00
13033;BME280;6583;42.632;23.298;2022-12-07T02:30:35;92341.38;;;5.41;100.00
13033;BME280;6583;42.632;23.298;2022-12-07T02:33:06;92330.56;;;5.42;100.00
13033;BME280;6583;42.632;23.298;2022-12-07T02:35:39;92330.84;;;5.46;100.00
13033;BME280;6583;42.632;23.298;2022-12-07T02:38:12;92324.53;;;5.52;100.00
13033;BME280;6583;42.632;23.298;2022-12-07T02:40:44;92326.38;;;5.57;100.00
13033;BME280;6583;42.632;23.298;2022-12-07T02:43:16;92325.59;;;5.61;100.00
13033;BME280;6583;42.632;23.298;2022-12-07T02:45:47;92335.34;;;5.56;100.00
13033;BME280;6583;42.632;23.298;2022-12-07T02:48:16;92337.97;;;5.56;100.00
13033;BME280;6583;42.632;23.298;2022-12-07T02:50:44;92328.22;;;5.46;100.00
13033;BME280;6583;42.632;23.298;2022-12-07T02:53:33;92339.25;;;5.43;100.00
13033;BME280;6583;42.632;23.298;2022-12-07T02:56:03;92336.09;;;5.46;100.00
13033;BME280;6583;42.632;23.298;2022-12-07T02:58:41;92317.44;;;5.47;100.00
13033;BME280;6583;42.632;23.298;2022-12-07T03:01:23;92321.91;;;5.47;100.00
13033;BME280;6583;42.632;23.298;2022-12-07T03:04:00;92319.03;;;5.49;100.00
13033;BME280;6583;42.632;23.298;2022-12-07T03:06:32;92314.00;;;5.42;100.00
13033;BME280;6583;42.632;23.298;2022-12-07T03:09:10;92316.38;;;5.33;100.00
13033;BME280;6583;42.632;23.298;2022-12-07T03:11:45;92305.03;;;5.33;100.00
13033;BME280;6583;42.632;23.298;2022-12-07T03:14:17;92299.00;;;5.32;100.00
13033;BME280;6583;42.632;23.298;2022-12-07T03:16:52;92306.63;;;5.28;100.00
13033;BME280;6583;42.632;23.298;2022-12-07T03:19:23;92303.19;;;5.23;100.00
13033;BME280;6583;42.632;23.298;2022-12-07T03:21:56;92302.69;;;5.21;100.00
13033;BME280;6583;42.632;23.298;2022-12-07T03:24:27;92305.31;;;5.26;100.00
13033;BME280;6583;42.632;23.298;2022-12-07T03:26:59;92310.84;;;5.30;100.00
13033;BME280;6583;42.632;23.298;2022-12-07T03:29:35;92317.91;;;5.24;100.00
13033;BME280;6583;42.632;23.298;2022-12-07T03:32:08;92317.88;;;5.03;100.00
13033;BME280;6583;42.632;23.298;2022-12-07T03:34:41;92322.81;;;4.74;100.00
13033;BME280;6583;42.632;23.298;2022-12-07T03:37:15;92315.94;;;4.68;100.00
13033;BME280;6583;42.632;23.298;2022-12-07T03:39:50;92312.78;;;4.66;100.00
13033;BME280;6583;42.632;23.298;2022-12-07T03:42:21;92309.91;;;4.67;100.00
13033;BME280;6583;42.632;23.298;2022-12-07T03:44:48;92310.97;;;4.71;100.00
13033;BME280;6583;42.632;23.298;2022-12-07T03:47:24;92301.78;;;4.79;100.00
13033;BME280;6583;42.632;23.298;2022-12-07T03:49:56;92307.34;;;4.88;100.00
13033;BME280;6583;42.632;23.298;2022-12-07T03:52:30;92317.34;;;4.96;100.00
13033;BME280;6583;42.632;23.298;2022-12-07T03:55:04;92300.00;;;4.95;100.00
13033;BME280;6583;42.632;23.298;2022-12-07T03:57:33;92301.81;;;5.00;100.00
13033;BME280;6583;42.632;23.298;2022-12-07T04:00:04;92290.78;;;5.03;100.00
13033;BME280;6583;42.632;23.298;2022-12-07T04:02:33;92295.28;;;5.13;100.00
13033;BME280;6583;42.632;23.298;2022-12-07T04:05:00;92295.03;;;5.14;100.00
13033;BME280;6583;42.632;23.298;2022-12-07T04:07:28;92298.44;;;5.15;100.00
13033;BME280;6583;42.632;23.298;2022-12-07T04:09:54;92290.81;;;5.13;100.00
13033;BME280;6583;42.632;23.298;2022-12-07T04:12:21;92301.84;;;5.15;100.00
13033;BME280;6583;42.632;23.298;2022-12-07T04:14:47;92296.59;;;5.20;100.00
13033;BME280;6583;42.632;23.298;2022-12-07T04:17:14;92298.47;;;5.25;100.00
13033;BME280;6583;42.632;23.298;2022-12-07T04:19:42;92298.72;;;5.28;100.00
13033;BME280;6583;42.632;23.298;2022-12-07T04:22:10;92301.09;;;5.30;100.00
13033;BME280;6583;42.632;23.298;2022-12-07T04:24:36;92302.41;;;5.33;100.00
13033;BME280;6583;42.632;23.298;2022-12-07T04:27:03;92300.84;;;5.37;100.00
13033;BME280;6583;42.632;23.298;2022-12-07T04:29:30;92300.34;;;5.40;100.00
13033;BME280;6583;42.632;23.298;2022-12-07T04:31:56;92300.03;;;5.41;100.00
13033;BME280;6583;42.632;23.298;2022-12-07T04:34:23;92300.31;;;5.45;100.00
13033;BME280;6583;42.632;23.298;2022-12-07T04:36:51;92299.53;;;5.50;100.00
13033;BME280;6583;42.632;23.298;2022-12-07T04:39:20;92305.06;;;5.53;100.00
13033;BME280;6583;42.632;23.298;2022-12-07T04:41:47;92305.88;;;5.54;100.00
13033;BME280;6583;42.632;23.298;2022-12-07T04:44:15;92310.56;;;5.57;100.00
13033;BME280;6583;42.632;23.298;2022-12-07T04:46:42;92312.16;;;5.53;100.00
13033;BME280;6583;42.632;23.298;2022-12-07T04:49:09;92318.22;;;5.48;100.00
13033;BME280;6583;42.632;23.298;2022-12-07T04:51:36;92313.50;;;5.40;100.00
13033;BME280;6583;42.632;23.298;2022-12-07T04:54:04;92317.94;;;5.34;100.00
13033;BME280;6583;42.632;23.298;2022-12-07T04:56:31;92317.16;;;5.34;100.00
13033;BME280;6583;42.632;23.298;2022-12-07T04:58:59;92311.88;;;5.28;100.00
13033;BME280;6583;42.632;23.298;2022-12-07T05:01:26;92299.25;;;5.31;100.00
13033;BME280;6583;42.632;23.298;2022-12-07T05:03:53;92309.00;;;5.35;100.00
13033;BME280;6583;42.632;23.298;2022-12-07T05:06:19;92307.16;;;5.41;100.00
13033;BME280;6583;42.632;23.298;2022-12-07T05:08:46;92307.41;;;5.44;100.00
13033;BME280;6583;42.632;23.298;2022-12-07T05:11:15;92306.91;;;5.47;100.00
13033;BME280;6583;42.632;23.298;2022-12-07T05:13:55;92307.41;;;5.24;100.00
13033;BME280;6583;42.632;23.298;2022-12-07T05:16:22;92329.47;;;5.02;100.00
13033;BME280;6583;42.632;23.298;2022-12-07T05:18:49;92329.34;;;4.66;100.00
13033;BME280;6583;42.632;23.298;2022-12-07T05:21:15;92318.78;;;4.56;100.00
13033;BME280;6583;42.632;23.298;2022-12-07T05:23:42;92327.72;;;4.55;100.00
13033;BME280;6583;42.632;23.298;2022-12-07T05:26:09;92315.66;;;4.59;100.00
13033;BME280;6583;42.632;23.298;2022-12-07T05:28:37;92315.16;;;4.67;100.00
13033;BME280;6583;42.632;23.298;2022-12-07T05:31:04;92313.88;;;4.75;100.00
13033;BME280;6583;42.632;23.298;2022-12-07T05:33:31;92306.00;;;4.85;100.00
13033;BME280;6583;42.632;23.298;2022-12-07T05:35:58;92307.34;;;4.88;100.00
13033;BME280;6583;42.632;23.298;2022-12-07T05:38:30;92301.78;;;4.84;100.00
13033;BME280;6583;42.632;23.298;2022-12-07T05:41:00;92291.56;;;4.88;100.00
13033;BME280;6583;42.632;23.298;2022-12-07T05:43:27;92285.25;;;4.89;100.00
13033;BME280;6583;42.632;23.298;2022-12-07T05:45:55;92286.84;;;4.90;100.00
13033;BME280;6583;42.632;23.298;2022-12-07T05:48:23;92283.94;;;4.86;100.00
13033;BME280;6583;42.632;23.298;2022-12-07T05:50:50;92294.19;;;4.88;100.00
13033;BME280;6583;42.632;23.298;2022-12-07T05:53:18;92294.22;;;4.93;100.00
13033;BME280;6583;42.632;23.298;2022-12-07T05:55:44;92291.56;;;5.03;100.00
13033;BME280;6583;42.632;23.298;2022-12-07T05:58:11;92295.28;;;5.07;100.00
13033;BME280;6583;42.632;23.298;2022-12-07T06:00:56;92295.81;;;5.09;100.00
13033;BME280;6583;42.632;23.298;2022-12-07T06:03:23;92295.78;;;4.99;100.00
13033;BME280;6583;42.632;23.298;2022-12-07T06:05:51;92297.91;;;5.02;100.00
13033;BME280;6583;42.632;23.298;2022-12-07T06:08:18;92300.03;;;5.05;100.00
13033;BME280;6583;42.632;23.298;2022-12-07T06:10:47;92291.28;;;4.95;100.00
13033;BME280;6583;42.632;23.298;2022-12-07T06:13:35;92298.41;;;4.94;100.00
13033;BME280;6583;42.632;23.298;2022-12-07T06:16:02;92294.72;;;4.90;100.00
13033;BME280;6583;42.632;23.298;2022-12-07T06:18:29;92302.09;;;4.93;100.00
13033;BME280;6583;42.632;23.298;2022-12-07T06:20:56;92298.66;;;4.93;100.00
13033;BME280;6583;42.632;23.298;2022-12-07T06:23:22;92313.66;;;4.97;100.00
13033;BME280;6583;42.632;23.298;2022-12-07T06:25:49;92312.09;;;5.06;100.00
13033;BME280;6583;42.632;23.298;2022-12-07T06:28:15;92320.00;;;5.12;100.00
13033;BME280;6583;42.632;23.298;2022-12-07T06:30:42;92315.25;;;5.14;100.00
13033;BME280;6583;42.632;23.298;2022-12-07T06:33:10;92310.81;;;5.19;100.00
13033;BME280;6583;42.632;23.298;2022-12-07T06:35:37;92309.50;;;5.22;100.00
13033;BME280;6583;42.632;23.298;2022-12-07T06:38:03;92316.63;;;5.26;100.00
13033;BME280;6583;42.632;23.298;2022-12-07T06:40:30;92312.66;;;5.19;100.00
13033;BME280;6583;42.632;23.298;2022-12-07T06:42:57;92322.66;;;5.17;100.00
13033;BME280;6583;42.632;23.298;2022-12-07T06:45:23;92310.81;;;5.09;100.00
13033;BME280;6583;42.632;23.298;2022-12-07T06:47:50;92313.19;;;5.11;100.00
13033;BME280;6583;42.632;23.298;2022-12-07T06:50:18;92319.44;;;4.94;100.00
13033;BME280;6583;42.632;23.298;2022-12-07T06:52:44;92316.81;;;4.99;100.00
13033;BME280;6583;42.632;23.298;2022-12-07T06:55:11;92318.69;;;5.04;100.00
13033;BME280;6583;42.632;23.298;2022-12-07T06:57:38;92320.50;;;5.08;100.00
13033;BME280;6583;42.632;23.298;2022-12-07T07:00:06;92322.66;;;5.17;100.00
13033;BME280;6583;42.632;23.298;2022-12-07T07:02:32;92325.81;;;5.24;100.00
13033;BME280;6583;42.632;23.298;2022-12-07T07:04:59;92327.13;;;5.26;100.00
13033;BME280;6583;42.632;23.298;2022-12-07T07:07:27;92329.50;;;5.28;100.00
13033;BME280;6583;42.632;23.298;2022-12-07T07:09:54;92323.19;;;5.29;100.00
13033;BME280;6583;42.632;23.298;2022-12-07T07:12:20;92320.81;;;5.22;100.00
13033;BME280;6583;42.632;23.298;2022-12-07T07:14:47;92320.28;;;5.25;100.00
13033;BME280;6583;42.632;23.298;2022-12-07T07:17:14;92312.91;;;5.27;100.00
13033;BME280;6583;42.632;23.298;2022-12-07T07:19:40;92311.63;;;5.30;100.00
13033;BME280;6583;42.632;23.298;2022-12-07T07:22:07;92321.06;;;5.31;100.00
13033;BME280;6583;42.632;23.298;2022-12-07T07:24:35;92324.78;;;5.30;100.00
13033;BME280;6583;42.632;23.298;2022-12-07T07:27:02;92325.03;;;5.28;100.00
13033;BME280;6583;42.632;23.298;2022-12-07T07:29:28;92335.31;;;5.30;100.00
13033;BME280;6583;42.632;23.298;2022-12-07T07:31:55;92338.44;;;5.27;100.00
13033;BME280;6583;42.632;23.298;2022-12-07T07:34:21;92337.94;;;5.30;100.00
13033;BME280;6583;42.632;23.298;2022-12-07T07:36:48;92337.66;;;5.26;100.00
13033;BME280;6583;42.632;23.298;2022-12-07T07:39:15;92340.03;;;5.28;100.00
13033;BME280;6583;42.632;23.298;2022-12-07T07:41:43;92332.16;;;5.28;100.00
13033;BME280;6583;42.632;23.298;2022-12-07T07:44:09;92337.38;;;5.18;100.00
13033;BME280;6583;42.632;23.298;2022-12-07T07:46:36;92325.03;;;5.18;100.00
13033;BME280;6583;42.632;23.298;2022-12-07T07:49:03;92332.13;;;5.18;100.00
13033;BME280;6583;42.632;23.298;2022-12-07T07:51:29;92327.38;;;5.20;100.00
13033;BME280;6583;42.632;23.298;2022-12-07T07:53:56;92333.41;;;5.10;100.00
13033;BME280;6583;42.632;23.298;2022-12-07T07:56:23;92333.16;;;5.17;100.00
13033;BME280;6583;42.632;23.298;2022-12-07T07:58:53;92335.81;;;5.27;100.00
13033;BME280;6583;42.632;23.298;2022-12-07T08:01:19;92335.81;;;5.32;100.00
13033;BME280;6583;42.632;23.298;2022-12-07T08:03:46;92328.72;;;5.38;100.00
13033;BME280;6583;42.632;23.298;2022-12-07T08:06:13;92337.44;;;5.43;100.00
13033;BME280;6583;42.632;23.298;2022-12-07T08:08:39;92333.72;;;5.44;100.00
13033;BME280;6583;42.632;23.298;2022-12-07T08:11:07;92336.88;;;5.46;100.00
13033;BME280;6583;42.632;23.298;2022-12-07T08:13:36;92332.69;;;5.40;100.00
13033;BME280;6583;42.632;23.298;2022-12-07T08:16:06;92338.97;;;5.34;100.00
13033;BME280;6583;42.632;23.298;2022-12-07T08:18:35;92325.81;;;5.34;100.00
13033;BME280;6583;42.632;23.298;2022-12-07T08:21:02;92334.22;;;5.16;100.00
13033;BME280;6583;42.632;23.298;2022-12-07T08:23:28;92330.81;;;5.20;100.00
13033;BME280;6583;42.632;23.298;2022-12-07T08:25:59;92329.25;;;5.24;100.00
13033;BME280;6583;42.632;23.298;2022-12-07T08:28:26;92334.78;;;5.28;100.00
13033;BME280;6583;42.632;23.298;2022-12-07T08:30:58;92330.56;;;5.32;100.00
13033;BME280;6583;42.632;23.298;2022-12-07T08:33:27;92333.72;;;5.39;100.00
13033;BME280;6583;42.632;23.298;2022-12-07T08:35:54;92334.53;;;5.40;100.00
13033;BME280;6583;42.632;23.298;2022-12-07T08:38:20;92332.44;;;5.47;100.00
13033;BME280;6583;42.632;23.298;2022-12-07T08:40:53;92330.59;;;5.53;100.00
13033;BME280;6583;42.632;23.298;2022-12-07T08:43:20;92322.69;;;5.58;100.00
13033;BME280;6583;42.632;23.298;2022-12-07T08:45:48;92330.06;;;5.61;100.00
13033;BME280;6583;42.632;23.298;2022-12-07T08:48:15;92329.81;;;5.62;100.00
13033;BME280;6583;42.632;23.298;2022-12-07T08:50:48;92331.13;;;5.65;100.00
13033;BME280;6583;42.632;23.298;2022-12-07T08:53:15;92325.06;;;5.70;100.00
13033;BME280;6583;42.632;23.298;2022-12-07T08:55:43;92320.84;;;5.69;100.00
13033;BME280;6583;42.632;23.298;2022-12-07T08:58:10;92322.69;;;5.73;100.00
13033;BME280;6583;42.632;23.298;2022-12-07T09:00:37;92311.09;;;5.74;100.00
13033;BME280;6583;42.632;23.298;2022-12-07T09:03:04;92314.53;;;5.80;100.00
13033;BME280;6583;42.632;23.298;2022-12-07T09:05:32;92315.56;;;5.84;100.00
13033;BME280;6583;42.632;23.298;2022-12-07T09:08:01;92311.34;;;5.93;100.00
13033;BME280;6583;42.632;23.298;2022-12-07T09:10:28;92309.28;;;5.75;100.00
13033;BME280;6583;42.632;23.298;2022-12-07T09:12:55;92306.13;;;5.57;100.00
13033;BME280;6583;42.632;23.298;2022-12-07T09:15:25;92295.34;;;5.54;100.00
13033;BME280;6583;42.632;23.298;2022-12-07T09:17:52;92298.50;;;5.66;100.00
13033;BME280;6583;42.632;23.298;2022-12-07T09:20:19;92285.84;;;5.73;100.00
13033;BME280;6583;42.632;23.298;2022-12-07T09:22:46;92296.09;;;5.85;100.00
13033;BME280;6583;42.632;23.298;2022-12-07T09:25:14;92290.81;;;5.95;100.00
13033;BME280;6583;42.632;23.298;2022-12-07T09:27:41;92300.56;;;6.00;100.00
13033;BME280;6583;42.632;23.298;2022-12-07T09:30:08;92295.06;;;5.96;100.00
13033;BME280;6583;42.632;23.298;2022-12-07T09:32:35;92299.00;;;6.04;100.00
13033;BME280;6583;42.632;23.298;2022-12-07T09:35:05;92288.97;;;6.11;100.00
13033;BME280;6583;42.632;23.298;2022-12-07T09:37:32;92280.53;;;6.14;100.00
13033;BME280;6583;42.632;23.298;2022-12-07T09:40:01;92273.72;;;6.03;100.00
13033;BME280;6583;42.632;23.298;2022-12-07T09:42:32;92275.03;;;5.95;100.00
13033;BME280;6583;42.632;23.298;2022-12-07T09:45:01;92281.59;;;6.08;100.00
13033;BME280;6583;42.632;23.298;2022-12-07T09:47:28;92282.13;;;6.10;100.00
13033;BME280;6583;42.632;23.298;2022-12-07T09:50:00;92282.34;;;6.19;100.00
13033;BME280;6583;42.632;23.298;2022-12-07T09:52:30;92276.53;;;6.27;100.00
13033;BME280;6583;42.632;23.298;2022-12-07T09:54:57;92269.41;;;6.33;100.00
13033;BME280;6583;42.632;23.298;2022-12-07T09:57:27;92267.84;;;6.32;100.00
13033;BME280;6583;42.632;23.298;2022-12-07T10:00:00;92263.06;;;6.39;100.00
13033;BME280;6583;42.632;23.298;2022-12-07T10:02:35;92260.16;;;6.46;100.00
13033;BME280;6583;42.632;23.298;2022-12-07T10:05:04;92263.56;;;6.51;100.00
13033;BME280;6583;42.632;23.298;2022-12-07T10:07:32;92263.00;;;6.59;100.00
13033;BME280;6583;42.632;23.298;2022-12-07T10:09:59;92266.63;;;6.69;100.00
13033;BME280;6583;42.632;23.298;2022-12-07T10:12:25;92258.75;;;6.64;100.00
13033;BME280;6583;42.632;23.298;2022-12-07T10:15:00;92256.09;;;6.69;100.00
13033;BME280;6583;42.632;23.298;2022-12-07T10:17:35;92256.06;;;6.74;100.00
13033;BME280;6583;42.632;23.298;2022-12-07T10:20:15;92256.03;;;6.79;100.00
13033;BME280;6583;42.632;23.298;2022-12-07T10:22:55;92256.50;;;6.91;100.00
13033;BME280;6583;42.632;23.298;2022-12-07T10:25:26;92247.75;;;7.01;100.00
13033;BME280;6583;42.632;23.298;2022-12-07T10:28:13;92246.56;;;7.18;100.00
13033;BME280;6583;42.632;23.298;2022-12-07T10:30:51;92236.53;;;7.20;100.00
13033;BME280;6583;42.632;23.298;2022-12-07T10:33:28;92233.25;;;7.33;100.00
13033;BME280;6583;42.632;23.298;2022-12-07T10:35:55;92222.50;;;7.24;100.00
13033;BME280;6583;42.632;23.298;2022-12-07T10:38:24;92233.53;;;7.31;100.00
13033;BME280;6583;42.632;23.298;2022-12-07T10:41:03;92228.44;;;7.40;100.00
13033;BME280;6583;42.632;23.298;2022-12-07T10:43:30;92230.22;;;7.50;100.00
13033;BME280;6583;42.632;23.298;2022-12-07T10:49:08;92214.50;;;7.34;100.00
13033;BME280;6583;42.632;23.298;2022-12-07T10:51:45;92214.97;;;7.42;100.00
13033;BME280;6583;42.632;23.298;2022-12-07T10:54:19;92211.97;;;7.53;100.00
13033;BME280;6583;42.632;23.298;2022-12-07T10:57:04;92208.00;;;7.56;100.00
13033;BME280;6583;42.632;23.298;2022-12-07T10:59:48;92200.56;;;7.63;100.00
13033;BME280;6583;42.632;23.298;2022-12-07T11:02:36;92198.03;;;7.77;100.00
13033;BME280;6583;42.632;23.298;2022-12-07T11:05:13;92199.06;;;7.81;100.00
13033;BME280;6583;42.632;23.298;2022-12-07T11:07:47;92190.53;;;7.89;100.00
13033;BME280;6583;42.632;23.298;2022-12-07T11:10:19;92202.03;;;7.99;100.00
13033;BME280;6583;42.632;23.298;2022-12-07T11:12:57;92199.28;;;8.09;100.00
13033;BME280;6583;42.632;23.298;2022-12-07T11:15:36;92196.88;;;8.13;100.00
13033;BME280;6583;42.632;23.298;2022-12-07T11:18:11;92187.38;;;8.12;100.00
13033;BME280;6583;42.632;23.298;2022-12-07T11:20:44;92187.78;;;8.00;100.00
13033;BME280;6583;42.632;23.298;2022-12-07T11:23:26;92189.84;;;8.03;100.00
13033;BME280;6583;42.632;23.298;2022-12-07T11:26:02;92193.72;;;8.10;100.00
13033;BME280;6583;42.632;23.298;2022-12-07T11:28:44;92179.91;;;8.19;100.00
13033;BME280;6583;42.632;23.298;2022-12-07T11:31:23;92181.28;;;8.11;100.00
13033;BME280;6583;42.632;23.298;2022-12-07T11:34:00;92175.00;;;8.07;99.28
13033;BME280;6583;42.632;23.298;2022-12-07T11:36:37;92164.44;;;8.07;100.00
13033;BME280;6583;42.632;23.298;2022-12-07T11:39:23;92166.19;;;8.17;99.91
13033;BME280;6583;42.632;23.298;2022-12-07T11:41:55;92164.38;;;8.12;99.67
13033;BME280;6583;42.632;23.298;2022-12-07T11:44:29;92155.88;;;8.15;98.03
13033;BME280;6583;42.632;23.298;2022-12-07T11:47:00;92157.38;;;8.21;98.68
13033;BME280;6583;42.632;23.298;2022-12-07T11:49:40;92156.81;;;8.24;99.14
13033;BME280;6583;42.632;23.298;2022-12-07T11:52:18;92157.03;;;8.28;98.02
13033;BME280;6583;42.632;23.298;2022-12-07T11:54:50;92154.78;;;8.40;97.48
13033;BME280;6583;42.632;23.298;2022-12-07T11:57:22;92151.75;;;8.52;99.80
13033;BME280;6583;42.632;23.298;2022-12-07T11:59:52;92151.19;;;8.55;100.00
13033;BME280;6583;42.632;23.298;2022-12-07T12:02:26;92151.59;;;8.62;100.00
13033;BME280;6583;42.632;23.298;2022-12-07T12:05:02;92148.69;;;8.64;100.00
13033;BME280;6583;42.632;23.298;2022-12-07T12:07:32;92150.25;;;8.65;100.00
13033;BME280;6583;42.632;23.298;2022-12-07T12:10:02;92146.59;;;8.61;100.00
13033;BME280;6583;42.632;23.298;2022-12-07T12:12:45;92137.00;;;8.65;100.00
13033;BME280;6583;42.632;23.298;2022-12-07T12:15:35;92129.06;;;8.65;100.00
13033;BME280;6583;42.632;23.298;2022-12-07T12:18:18;92132.25;;;8.67;99.43
13033;BME280;6583;42.632;23.298;2022-12-07T12:20:55;92137.47;;;8.72;99.02
13033;BME280;6583;42.632;23.298;2022-12-07T12:23:27;92124.59;;;8.65;99.63
13033;BME280;6583;42.632;23.298;2022-12-07T12:26:01;92129.53;;;8.72;98.00
13033;BME280;6583;42.632;23.298;2022-12-07T12:28:33;92123.63;;;8.75;98.99
13033;BME280;6583;42.632;23.298;2022-12-07T12:31:09;92109.34;;;8.76;99.89
13033;BME280;6583;42.632;23.298;2022-12-07T12:33:43;92107.19;;;8.78;100.00
13033;BME280;6583;42.632;23.298;2022-12-07T12:36:23;92103.00;;;8.77;97.68
13033;BME280;6583;42.632;23.298;2022-12-07T12:39:08;92111.50;;;8.74;99.35
13033;BME280;6583;42.632;23.298;2022-12-07T12:41:57;92121.00;;;8.75;98.52
13033;BME280;6583;42.632;23.298;2022-12-07T12:44:41;92109.44;;;8.71;99.49
13033;BME280;6583;42.632;23.298;2022-12-07T12:50:30;92110.94;;;8.77;99.81
13033;BME280;6583;42.632;23.298;2022-12-07T12:53:11;92107.19;;;8.78;100.00
13033;BME280;6583;42.632;23.298;2022-12-07T12:58:47;92116.59;;;8.71;98.06
13033;BME280;6583;42.632;23.298;2022-12-07T13:01:45;92109.84;;;8.78;99.81
13033;BME280;6583;42.632;23.298;2022-12-07T13:04:25;92114.72;;;8.71;99.63
13033;BME280;6583;42.632;23.298;2022-12-07T13:06:53;92110.22;;;8.72;99.33
13033;BME280;6583;42.632;23.298;2022-12-07T13:09:24;92107.28;;;8.73;99.30
13033;BME280;6583;42.632;23.298;2022-12-07T13:11:59;92107.19;;;8.78;99.27
13033;BME280;6583;42.632;23.298;2022-12-07T13:14:54;92106.84;;;8.85;99.88
13033;BME280;6583;42.632;23.298;2022-12-07T13:17:59;92109.97;;;8.87;100.00
13033;BME280;6583;42.632;23.298;2022-12-07T13:20:50;92114.13;;;8.93;100.00
13033;BME280;6583;42.632;23.298;2022-12-07T13:23:28;92109.31;;;8.95;98.94
13033;BME280;6583;42.632;23.298;2022-12-07T13:26:07;92109.31;;;8.95;99.14
13033;BME280;6583;42.632;23.298;2022-12-07T13:28:37;92113.75;;;9.00;99.63
13033;BME280;6583;42.632;23.298;2022-12-07T13:31:31;92108.84;;;8.93;97.22